createdAt,value
2017-06-19T08:00:54.357Z,66.60
2017-06-19T08:03:22.292Z,58.50
2017-06-19T08:05:49.826Z,58.00
2017-06-19T08:08:16.921Z,58.20
2017-06-19T08:10:44.245Z,58.30
2017-06-19T08:13:11.319Z,58.00
2017-06-19T08:15:38.401Z,57.80
2017-06-19T08:18:05.517Z,57.70
2017-06-19T08:20:33.356Z,57.80
2017-06-19T08:23:00.567Z,57.80
2017-06-19T08:25:27.638Z,57.60
2017-06-19T08:27:54.868Z,57.40
2017-06-19T08:30:21.985Z,57.30
2017-06-19T08:32:49.089Z,57.30
2017-06-19T08:35:16.229Z,57.30
2017-06-19T08:37:43.380Z,57.30
2017-06-19T08:40:10.704Z,57.20
2017-06-19T08:42:37.775Z,57.30
2017-06-19T08:45:04.853Z,57.20
2017-06-19T08:47:32.741Z,57.30
2017-06-19T08:49:59.814Z,57.30
2017-06-19T08:52:27.152Z,57.30
2017-06-19T08:54:54.230Z,57.30
2017-06-19T08:57:21.311Z,57.40
2017-06-19T08:59:49.229Z,57.40
2017-06-19T09:02:16.306Z,57.40
2017-06-19T09:04:43.632Z,57.40
2017-06-19T09:07:10.781Z,57.40
2017-06-19T09:09:37.865Z,57.40
2017-06-19T09:12:05.771Z,57.50
2017-06-19T09:14:32.849Z,57.40
2017-06-19T09:16:59.986Z,57.40
2017-06-19T09:19:27.135Z,57.50
2017-06-19T09:21:54.395Z,57.40
2017-06-19T09:24:21.542Z,57.50
2017-06-19T09:26:48.621Z,57.40
2017-06-19T09:29:15.745Z,57.50
2017-06-19T09:31:42.822Z,57.50
2017-06-19T09:34:10.006Z,57.50
2017-06-19T09:36:37.120Z,57.50
2017-06-19T09:39:04.383Z,57.40
2017-06-19T09:41:31.562Z,57.50
2017-06-19T09:43:58.647Z,57.50
2017-06-19T09:46:26.707Z,57.50
2017-06-19T09:48:53.889Z,57.30
2017-06-19T09:51:21.246Z,57.50
2017-06-19T09:53:48.598Z,57.70
2017-06-19T09:56:16.150Z,57.70
2017-06-19T09:58:43.307Z,57.70
2017-06-19T10:01:10.683Z,57.80
2017-06-19T10:03:38.032Z,57.70
2017-06-19T10:06:05.281Z,58.40
2017-06-19T10:08:33.049Z,58.00
2017-06-19T10:11:00.142Z,58.20
2017-06-19T10:13:27.538Z,58.20
2017-06-19T10:15:54.690Z,58.20
2017-06-19T10:18:28.674Z,58.20
2017-06-19T10:20:55.867Z,58.10
